Time;durP1;ratioP1;P1;durP2;ratioP2;P2;SDS_P1;SDS_P2;PMS_P1;PMS_P2;Temp;Humidity;BMP_temperature;BMP_pressure;BME280_temperature;BME280_humidity;BME280_pressure;Samples;Min_cycle;Max_cycle;Signal;HPM_P1;HPM_P2
2023/08/02 00:01:36;;;;;;;0.20;0.17;;;;;;;;;;5013726;28;20053;-63
2023/08/02 00:04:02;;;;;;;1.50;0.10;;;;;;;;;;5012896;28;20048;-63
2023/08/02 00:06:28;;;;;;;0.17;0.10;;;;;;;;;;5015480;28;20142;-63
2023/08/02 00:08:54;;;;;;;0.10;0.10;;;;;;;;;;5012131;28;20049;-63
2023/08/02 00:11:20;;;;;;;0.20;0.10;;;;;;;;;;5014539;28;20042;-63
2023/08/02 00:13:46;;;;;;;0.10;0.10;;;;;;;;;;5016503;28;20041;-63
2023/08/02 00:16:14;;;;;;;0.30;0.10;;;;;;;;;;5013803;28;20057;-63
2023/08/02 00:18:40;;;;;;;0.30;0.08;;;;;;;;;;5014048;28;20041;-64
2023/08/02 00:21:06;;;;;;;0.35;0.10;;;;;;;;;;5015018;28;20118;-64
2023/08/02 00:23:32;;;;;;;0.20;0.10;;;;;;;;;;5017493;28;20116;-63
2023/08/02 00:25:58;;;;;;;0.10;0.10;;;;;;;;;;5010998;28;20124;-63
2023/08/02 00:28:24;;;;;;;0.90;0.35;;;;;;;;;;5012954;28;20046;-64
2023/08/02 00:30:50;;;;;;;0.10;0.10;;;;;;;;;;5010368;28;20046;-64
2023/08/02 00:33:16;;;;;;;0.03;0.03;;;;;;;;;;5015183;28;20518;-63
2023/08/02 00:35:43;;;;;;;0.20;0.20;;;;;;;;;;5015048;28;20045;-63
2023/08/02 00:38:09;;;;;;;0.32;0.10;;;;;;;;;;5010722;28;20048;-63
2023/08/02 00:40:35;;;;;;;0.10;0.10;;;;;;;;;;5013621;28;20045;-63
2023/08/02 00:43:01;;;;;;;0.28;0.15;;;;;;;;;;5011442;28;20041;-63
2023/08/02 00:45:27;;;;;;;0.13;0.13;;;;;;;;;;5013849;28;20119;-63
2023/08/02 00:47:53;;;;;;;0.00;0.00;;;;;;;;;;5012919;28;20037;-63
2023/08/02 00:50:22;;;;;;;0.28;0.15;;;;;;;;;;5010569;28;20041;-63
2023/08/02 00:52:49;;;;;;;0.20;0.10;;;;;;;;;;5018183;28;20037;-64
2023/08/02 00:55:15;;;;;;;0.20;0.10;;;;;;;;;;5011931;28;20136;-64
2023/08/02 00:57:41;;;;;;;0.30;0.20;;;;;;;;;;5016759;28;20048;-64
2023/08/02 01:00:08;;;;;;;0.13;0.10;;;;;;;;;;5012832;28;20495;-64
2023/08/02 01:02:34;;;;;;;0.10;0.10;;;;;;;;;;5010060;28;20045;-63
2023/08/02 01:05:00;;;;;;;0.15;0.10;;;;;;;;;;5011461;28;20660;-64
2023/08/02 01:07:29;;;;;;;0.20;0.20;;;;;;;;;;5008567;28;20500;-64
2023/08/02 01:09:59;;;;;;;0.17;0.10;;;;;;;;;;5011965;28;20165;-64
2023/08/02 01:12:25;;;;;;;0.20;0.20;;;;;;;;;;5016888;28;20569;-64
2023/08/02 01:14:58;;;;;;;0.80;0.20;;;;;;;;;;5012864;28;20046;-64
2023/08/02 01:17:25;;;;;;;0.10;0.10;;;;;;;;;;5013088;28;20084;-64
2023/08/02 01:19:51;;;;;;;0.20;0.20;;;;;;;;;;5012755;28;20514;-64
2023/08/02 01:22:17;;;;;;;0.30;0.20;;;;;;;;;;5011904;28;20038;-64
2023/08/02 01:24:43;;;;;;;0.10;0.10;;;;;;;;;;5011184;28;20045;-64
2023/08/02 01:27:15;;;;;;;1.30;0.20;;;;;;;;;;5008671;28;20410;-64
2023/08/02 01:29:44;;;;;;;0.20;0.20;;;;;;;;;;5014386;28;20052;-64
2023/08/02 01:32:10;;;;;;;0.10;0.10;;;;;;;;;;5013776;28;20069;-64
2023/08/02 01:34:36;;;;;;;0.40;0.30;;;;;;;;;;5010405;28;20045;-64
2023/08/02 01:37:02;;;;;;;0.20;0.20;;;;;;;;;;5009355;28;20030;-64
2023/08/02 01:39:28;;;;;;;0.13;0.10;;;;;;;;;;5010880;28;20049;-64
2023/08/02 01:41:54;;;;;;;0.20;0.20;;;;;;;;;;5008163;28;20045;-64
2023/08/02 01:44:20;;;;;;;0.25;0.20;;;;;;;;;;5009464;28;20968;-64
2023/08/02 01:46:46;;;;;;;0.47;0.28;;;;;;;;;;5011506;28;20133;-64
2023/08/02 01:49:12;;;;;;;0.10;0.10;;;;;;;;;;5011967;28;20120;-63
2023/08/02 01:51:38;;;;;;;0.22;0.22;;;;;;;;;;5016045;28;20509;-63
2023/08/02 01:54:04;;;;;;;0.20;0.20;;;;;;;;;;5013453;28;20057;-64
2023/08/02 01:56:30;;;;;;;0.40;0.35;;;;;;;;;;5017889;28;20041;-64
2023/08/02 01:58:56;;;;;;;0.32;0.22;;;;;;;;;;5012112;28;20042;-64
2023/08/02 02:01:22;;;;;;;0.75;0.47;;;;;;;;;;5011896;28;20501;-64
2023/08/02 02:03:48;;;;;;;0.50;0.30;;;;;;;;;;5008687;28;20515;-63
2023/08/02 02:06:14;;;;;;;0.75;0.60;;;;;;;;;;5009663;28;20207;-64
2023/08/02 02:08:40;;;;;;;0.63;0.43;;;;;;;;;;5010887;28;20076;-63
2023/08/02 02:11:07;;;;;;;0.40;0.40;;;;;;;;;;5005947;28;20156;-63
2023/08/02 02:13:33;;;;;;;1.00;0.60;;;;;;;;;;5015117;28;20084;-63
2023/08/02 02:15:59;;;;;;;0.35;0.35;;;;;;;;;;5009155;28;20073;-63
2023/08/02 02:18:25;;;;;;;0.47;0.40;;;;;;;;;;5012952;28;20116;-63
2023/08/02 02:20:51;;;;;;;0.38;0.38;;;;;;;;;;5009213;28;20087;-64
2023/08/02 02:23:17;;;;;;;0.77;0.60;;;;;;;;;;5008114;28;20073;-64
2023/08/02 02:25:43;;;;;;;1.08;0.80;;;;;;;;;;5009562;28;20045;-64
2023/08/02 02:28:11;;;;;;;1.60;0.47;;;;;;;;;;5016265;28;20036;-64
2023/08/02 02:30:37;;;;;;;0.43;0.43;;;;;;;;;;5014033;28;20982;-64
2023/08/02 02:33:04;;;;;;;0.52;0.38;;;;;;;;;;5010561;28;20070;-64
2023/08/02 02:35:30;;;;;;;1.02;0.50;;;;;;;;;;5014501;28;20034;-64
2023/08/02 02:37:56;;;;;;;0.40;0.40;;;;;;;;;;5008665;28;20049;-64
2023/08/02 02:40:22;;;;;;;0.35;0.30;;;;;;;;;;5011681;28;20041;-64
2023/08/02 02:42:48;;;;;;;0.43;0.43;;;;;;;;;;5012103;28;20054;-63
2023/08/02 02:45:14;;;;;;;1.48;0.60;;;;;;;;;;5008961;28;20052;-63
2023/08/02 02:47:40;;;;;;;0.30;0.30;;;;;;;;;;5009447;28;20046;-64
2023/08/02 02:50:07;;;;;;;0.50;0.45;;;;;;;;;;5009525;28;20071;-64
2023/08/02 02:52:33;;;;;;;0.52;0.40;;;;;;;;;;5011581;28;20038;-64
2023/08/02 02:54:59;;;;;;;0.47;0.40;;;;;;;;;;5010885;28;20062;-64
2023/08/02 02:57:25;;;;;;;0.50;0.50;;;;;;;;;;5013588;28;20563;-64
2023/08/02 02:59:51;;;;;;;0.30;0.30;;;;;;;;;;5015251;28;20041;-63
2023/08/02 03:02:17;;;;;;;0.47;0.47;;;;;;;;;;5017818;28;20045;-63
2023/08/02 03:04:43;;;;;;;0.43;0.30;;;;;;;;;;5018023;28;20522;-63
2023/08/02 03:07:09;;;;;;;0.73;0.50;;;;;;;;;;5015540;28;20049;-63
2023/08/02 03:09:35;;;;;;;0.85;0.60;;;;;;;;;;5015832;28;20045;-63
2023/08/02 03:12:01;;;;;;;0.30;0.30;;;;;;;;;;5019689;28;20054;-63
2023/08/02 03:14:28;;;;;;;0.47;0.45;;;;;;;;;;5020835;28;20049;-63
2023/08/02 03:16:54;;;;;;;0.50;0.50;;;;;;;;;;5019040;28;20125;-63
2023/08/02 03:19:20;;;;;;;0.85;0.47;;;;;;;;;;5013123;28;20038;-64
2023/08/02 03:21:46;;;;;;;1.25;0.50;;;;;;;;;;5019905;28;20148;-64
2023/08/02 03:24:12;;;;;;;0.52;0.52;;;;;;;;;;5015107;28;20069;-64
2023/08/02 03:26:38;;;;;;;0.50;0.50;;;;;;;;;;5015727;28;20072;-64
2023/08/02 03:29:04;;;;;;;1.08;0.60;;;;;;;;;;5015128;28;20042;-63
2023/08/02 03:31:30;;;;;;;0.40;0.35;;;;;;;;;;5019107;28;20041;-64
2023/08/02 03:33:56;;;;;;;0.43;0.43;;;;;;;;;;5020640;28;20507;-64
2023/08/02 03:36:22;;;;;;;0.47;0.40;;;;;;;;;;5020194;28;20038;-64
2023/08/02 03:38:48;;;;;;;0.68;0.52;;;;;;;;;;5018699;28;20049;-64
2023/08/02 03:41:14;;;;;;;0.57;0.40;;;;;;;;;;5016117;28;20034;-64
2023/08/02 03:43:40;;;;;;;0.90;0.55;;;;;;;;;;5015096;28;20041;-63
2023/08/02 03:46:06;;;;;;;0.98;0.80;;;;;;;;;;5012778;28;20046;-63
2023/08/02 03:48:32;;;;;;;0.85;0.40;;;;;;;;;;5014032;28;20025;-63
2023/08/02 03:50:59;;;;;;;1.05;0.50;;;;;;;;;;5014128;28;20492;-64
2023/08/02 03:53:28;;;;;;;0.85;0.57;;;;;;;;;;5014889;28;20607;-63
2023/08/02 03:55:54;;;;;;;1.27;0.60;;;;;;;;;;5015416;28;20042;-63
2023/08/02 03:58:20;;;;;;;1.13;0.73;;;;;;;;;;5019193;28;20032;-64
2023/08/02 04:00:46;;;;;;;1.90;0.88;;;;;;;;;;5019388;28;20060;-64
2023/08/02 04:03:12;;;;;;;1.42;0.77;;;;;;;;;;5014517;28;20046;-64
2023/08/02 04:05:39;;;;;;;1.13;0.63;;;;;;;;;;5015844;28;20559;-63
2023/08/02 04:08:05;;;;;;;1.05;0.80;;;;;;;;;;5017815;28;21716;-63
2023/08/02 04:10:35;;;;;;;3.72;1.20;;;;;;;;;;5015908;28;20050;-63
2023/08/02 04:13:01;;;;;;;1.65;1.25;;;;;;;;;;5020263;28;20529;-63
2023/08/02 04:15:27;;;;;;;5.22;1.17;;;;;;;;;;5018583;28;20120;-63
2023/08/02 04:17:53;;;;;;;3.85;1.27;;;;;;;;;;5014196;28;20099;-63
2023/08/02 04:20:19;;;;;;;3.03;1.75;;;;;;;;;;5012758;28;20034;-63
2023/08/02 04:22:47;;;;;;;5.78;2.13;;;;;;;;;;5021956;28;20045;-63
2023/08/02 04:25:13;;;;;;;3.97;1.83;;;;;;;;;;5017370;28;20526;-64
2023/08/02 04:27:39;;;;;;;3.60;1.60;;;;;;;;;;5011527;28;20057;-63
2023/08/02 04:30:05;;;;;;;3.70;1.65;;;;;;;;;;5014091;28;20052;-63
2023/08/02 04:32:31;;;;;;;2.72;1.42;;;;;;;;;;5014574;28;20044;-64
2023/08/02 04:34:58;;;;;;;2.05;1.50;;;;;;;;;;5015309;28;20048;-63
2023/08/02 04:37:24;;;;;;;1.98;1.60;;;;;;;;;;5016069;28;20514;-63
2023/08/02 04:39:50;;;;;;;3.20;1.50;;;;;;;;;;5018110;28;20124;-64
2023/08/02 04:42:16;;;;;;;2.40;1.65;;;;;;;;;;5015475;28;20038;-64
2023/08/02 04:44:42;;;;;;;1.75;1.33;;;;;;;;;;5012929;28;20042;-64
2023/08/02 04:47:08;;;;;;;2.33;1.90;;;;;;;;;;5010574;28;20034;-63
2023/08/02 04:49:35;;;;;;;3.47;1.55;;;;;;;;;;5010661;28;20045;-63
2023/08/02 04:52:01;;;;;;;2.33;1.80;;;;;;;;;;5010269;28;20432;-63
2023/08/02 04:54:27;;;;;;;2.63;1.67;;;;;;;;;;5013657;28;20050;-63
2023/08/02 04:56:54;;;;;;;2.47;2.05;;;;;;;;;;5015200;28;20487;-63
2023/08/02 04:59:20;;;;;;;1.67;1.42;;;;;;;;;;5011607;28;20112;-64
2023/08/02 05:01:46;;;;;;;2.67;1.90;;;;;;;;;;5010919;28;20053;-64
2023/08/02 05:04:13;;;;;;;3.13;2.05;;;;;;;;;;5011954;28;20044;-64
2023/08/02 05:06:39;;;;;;;3.50;1.80;;;;;;;;;;5015406;28;20095;-64
2023/08/02 05:09:05;;;;;;;2.75;1.88;;;;;;;;;;5012315;28;20298;-64
2023/08/02 05:11:34;;;;;;;5.95;2.15;;;;;;;;;;5016618;28;20746;-64
2023/08/02 05:14:00;;;;;;;2.70;2.15;;;;;;;;;;5012313;28;20041;-64
2023/08/02 05:16:27;;;;;;;4.13;3.10;;;;;;;;;;5017758;28;20592;-64
2023/08/02 05:18:53;;;;;;;4.28;2.67;;;;;;;;;;5009935;28;20545;-64
2023/08/02 05:21:19;;;;;;;3.55;2.63;;;;;;;;;;5018215;28;20046;-64
2023/08/02 05:23:45;;;;;;;2.53;2.33;;;;;;;;;;5011624;28;20061;-64
2023/08/02 05:26:13;;;;;;;2.67;1.52;;;;;;;;;;5012428;28;20092;-64
2023/08/02 05:28:40;;;;;;;1.75;1.33;;;;;;;;;;5014820;28;20048;-64
2023/08/02 05:31:10;;;;;;;2.35;1.83;;;;;;;;;;5008987;28;20037;-62
2023/08/02 05:33:36;;;;;;;4.40;2.42;;;;;;;;;;5016306;28;20106;-58
2023/08/02 05:36:03;;;;;;;2.30;1.75;;;;;;;;;;5013978;28;20312;-62
2023/08/02 05:38:30;;;;;;;3.58;1.90;;;;;;;;;;5016808;28;20038;-64
2023/08/02 05:41:00;;;;;;;1.73;1.63;;;;;;;;;;5013826;28;20360;-64
2023/08/02 05:43:26;;;;;;;2.55;2.35;;;;;;;;;;5017003;28;20057;-59
2023/08/02 05:45:53;;;;;;;2.58;1.88;;;;;;;;;;5009873;28;20042;-59
2023/08/02 05:48:19;;;;;;;3.03;2.13;;;;;;;;;;5018477;28;20120;-63
2023/08/02 05:50:45;;;;;;;2.80;1.88;;;;;;;;;;5009738;28;20124;-63
2023/08/02 05:53:11;;;;;;;2.67;1.77;;;;;;;;;;5008426;28;20626;-63
2023/08/02 05:55:37;;;;;;;4.20;2.60;;;;;;;;;;5011630;28;20053;-63
2023/08/02 05:58:03;;;;;;;5.80;3.30;;;;;;;;;;5015000;28;20053;-63
2023/08/02 06:00:29;;;;;;;3.50;2.03;;;;;;;;;;5015038;28;20041;-63
2023/08/02 06:02:55;;;;;;;2.78;2.58;;;;;;;;;;5015400;28;20034;-62
2023/08/02 06:05:21;;;;;;;5.47;2.92;;;;;;;;;;5007298;28;20048;-63
2023/08/02 06:07:47;;;;;;;3.25;2.33;;;;;;;;;;5017199;28;20067;-63
2023/08/02 06:10:13;;;;;;;2.50;2.10;;;;;;;;;;5009583;28;20041;-63
2023/08/02 06:12:39;;;;;;;3.03;2.15;;;;;;;;;;5013290;28;20179;-64
2023/08/02 06:15:05;;;;;;;3.63;2.50;;;;;;;;;;5013552;28;20033;-64
2023/08/02 06:17:32;;;;;;;3.72;2.50;;;;;;;;;;5006331;28;20041;-64
2023/08/02 06:19:58;;;;;;;3.80;2.78;;;;;;;;;;5015120;28;20046;-64
2023/08/02 06:22:24;;;;;;;3.95;2.63;;;;;;;;;;5018445;28;20041;-64
2023/08/02 06:24:50;;;;;;;3.88;2.58;;;;;;;;;;5018464;28;20049;-64
2023/08/02 06:27:16;;;;;;;4.53;3.00;;;;;;;;;;5017418;28;20077;-64
2023/08/02 06:29:42;;;;;;;6.45;3.40;;;;;;;;;;5015928;28;20372;-64
2023/08/02 06:32:08;;;;;;;7.63;3.17;;;;;;;;;;5017376;28;20547;-64
2023/08/02 06:34:34;;;;;;;5.38;3.60;;;;;;;;;;5019155;28;20044;-64
2023/08/02 06:37:00;;;;;;;3.95;2.75;;;;;;;;;;5020074;28;20107;-64
2023/08/02 06:39:26;;;;;;;3.28;2.88;;;;;;;;;;5019893;28;20537;-64
2023/08/02 06:41:52;;;;;;;8.15;4.10;;;;;;;;;;5028693;28;20398;-64
2023/08/02 06:44:18;;;;;;;5.40;3.55;;;;;;;;;;5017617;28;20785;-64
2023/08/02 06:46:44;;;;;;;6.30;3.60;;;;;;;;;;5017830;28;20117;-63
2023/08/02 06:49:10;;;;;;;4.90;3.60;;;;;;;;;;5016934;28;20073;-63
2023/08/02 06:51:36;;;;;;;2.88;2.33;;;;;;;;;;5019533;28;20045;-63
2023/08/02 06:54:02;;;;;;;5.20;3.40;;;;;;;;;;5016928;28;20058;-64
2023/08/02 06:56:28;;;;;;;3.75;2.97;;;;;;;;;;5020415;28;20034;-63
2023/08/02 06:58:54;;;;;;;3.92;3.17;;;;;;;;;;5019842;28;20407;-64
2023/08/02 07:01:21;;;;;;;4.57;3.22;;;;;;;;;;5018529;28;20215;-64
2023/08/02 07:03:47;;;;;;;4.07;2.92;;;;;;;;;;5019986;28;20056;-64
2023/08/02 07:06:14;;;;;;;4.93;4.22;;;;;;;;;;5017831;28;20128;-63
2023/08/02 07:08:41;;;;;;;6.85;4.30;;;;;;;;;;5017430;28;20034;-64
2023/08/02 07:11:07;;;;;;;8.25;4.75;;;;;;;;;;5020680;28;20038;-64
2023/08/02 07:13:35;;;;;;;5.95;4.45;;;;;;;;;;5017721;28;20582;-64
2023/08/02 07:16:01;;;;;;;6.85;4.25;;;;;;;;;;5018799;28;20052;-64
2023/08/02 07:18:27;;;;;;;4.88;4.05;;;;;;;;;;5021728;28;20046;-64
2023/08/02 07:20:53;;;;;;;3.95;3.42;;;;;;;;;;5015496;28;20120;-64
2023/08/02 07:23:20;;;;;;;3.90;3.10;;;;;;;;;;5015330;28;20046;-64
2023/08/02 07:25:46;;;;;;;5.35;3.30;;;;;;;;;;5019438;28;20041;-64
2023/08/02 07:28:12;;;;;;;11.23;4.43;;;;;;;;;;5019227;28;20176;-64
2023/08/02 07:30:38;;;;;;;6.53;3.90;;;;;;;;;;5020333;28;20111;-65
2023/08/02 07:33:04;;;;;;;3.60;3.10;;;;;;;;;;5018124;28;20045;-65
2023/08/02 07:35:30;;;;;;;3.72;3.13;;;;;;;;;;5017878;28;20048;-64
2023/08/02 07:37:56;;;;;;;10.25;3.90;;;;;;;;;;5024473;28;20144;-64
2023/08/02 07:40:22;;;;;;;4.35;2.80;;;;;;;;;;5020002;28;20037;-64
2023/08/02 07:42:48;;;;;;;3.05;2.10;;;;;;;;;;5024008;28;20045;-64
2023/08/02 07:45:14;;;;;;;3.63;2.30;;;;;;;;;;5021762;28;20099;-64
2023/08/02 07:47:40;;;;;;;4.00;2.88;;;;;;;;;;5023501;28;20042;-64
2023/08/02 07:50:07;;;;;;;6.80;2.85;;;;;;;;;;5020419;28;20050;-64
2023/08/02 07:52:34;;;;;;;3.63;2.70;;;;;;;;;;5023231;28;20045;-64
2023/08/02 07:55:01;;;;;;;3.70;2.50;;;;;;;;;;5021360;28;20552;-64
2023/08/02 07:57:28;;;;;;;3.33;2.17;;;;;;;;;;5025457;28;20073;-64
2023/08/02 07:59:54;;;;;;;4.82;3.28;;;;;;;;;;5018692;28;20037;-64
2023/08/02 08:02:20;;;;;;;3.55;2.95;;;;;;;;;;5017359;28;20041;-64
2023/08/02 08:04:46;;;;;;;3.83;2.88;;;;;;;;;;5016701;28;20546;-65
2023/08/02 08:07:12;;;;;;;4.55;2.60;;;;;;;;;;5019240;28;20041;-64
2023/08/02 08:09:38;;;;;;;3.28;2.15;;;;;;;;;;5018793;28;20046;-64
2023/08/02 08:12:05;;;;;;;3.33;2.40;;;;;;;;;;5019791;28;20042;-64
2023/08/02 08:14:32;;;;;;;7.35;3.15;;;;;;;;;;5018032;28;20049;-64
2023/08/02 08:16:58;;;;;;;2.75;2.55;;;;;;;;;;5020811;28;20156;-64
2023/08/02 08:19:25;;;;;;;3.03;2.38;;;;;;;;;;5019138;28;20045;-64
2023/08/02 08:21:51;;;;;;;3.33;2.80;;;;;;;;;;5022119;28;20037;-64
2023/08/02 08:24:17;;;;;;;4.13;2.45;;;;;;;;;;5017498;28;20056;-64
2023/08/02 08:26:43;;;;;;;4.03;2.75;;;;;;;;;;5018912;28;20124;-64
2023/08/02 08:29:09;;;;;;;2.78;2.00;;;;;;;;;;5016796;28;20033;-64
2023/08/02 08:31:36;;;;;;;1.75;1.65;;;;;;;;;;5018942;28;20045;-64
2023/08/02 08:34:02;;;;;;;2.90;1.80;;;;;;;;;;5021276;28;20041;-65
2023/08/02 08:36:31;;;;;;;3.63;2.67;;;;;;;;;;5018062;28;20073;-64
2023/08/02 08:38:58;;;;;;;3.40;2.00;;;;;;;;;;5015488;28;20488;-64
2023/08/02 08:41:24;;;;;;;3.80;2.35;;;;;;;;;;5016919;28;20034;-64
2023/08/02 08:43:50;;;;;;;4.10;2.38;;;;;;;;;;5016648;28;20037;-64
2023/08/02 08:46:16;;;;;;;3.05;2.45;;;;;;;;;;5021367;28;20314;-64
2023/08/02 08:48:42;;;;;;;3.13;2.33;;;;;;;;;;5015195;28;20041;-64
2023/08/02 08:51:10;;;;;;;3.97;2.33;;;;;;;;;;5018523;28;20041;-64
2023/08/02 08:53:37;;;;;;;2.03;1.83;;;;;;;;;;5015968;28;20049;-64
2023/08/02 08:56:04;;;;;;;2.33;1.98;;;;;;;;;;5019728;28;20091;-64
2023/08/02 08:58:34;;;;;;;2.70;2.22;;;;;;;;;;5016656;28;20037;-64
2023/08/02 09:01:03;;;;;;;5.05;2.88;;;;;;;;;;5022244;28;20088;-64
2023/08/02 09:03:30;;;;;;;2.97;1.95;;;;;;;;;;5016357;28;20598;-64
2023/08/02 09:06:00;;;;;;;3.30;2.22;;;;;;;;;;5019880;28;20045;-64
2023/08/02 09:08:27;;;;;;;2.35;1.83;;;;;;;;;;5017432;28;20407;-64
2023/08/02 09:10:53;;;;;;;2.63;1.60;;;;;;;;;;5018499;28;20649;-63
2023/08/02 09:13:26;;;;;;;4.50;2.72;;;;;;;;;;5016622;28;20337;-64
2023/08/02 09:16:12;;;;;;;4.85;3.22;;;;;;;;;;5013403;28;20499;-64
2023/08/02 09:18:42;;;;;;;3.80;2.50;;;;;;;;;;5015475;28;20042;-64
2023/08/02 09:21:10;;;;;;;2.85;2.13;;;;;;;;;;5011509;28;20131;-64
2023/08/02 09:23:37;;;;;;;3.53;2.15;;;;;;;;;;5015512;28;20064;-64
2023/08/02 09:26:18;;;;;;;2.80;2.53;;;;;;;;;;5013488;28;20419;-64
2023/08/02 09:29:01;;;;;;;4.18;2.22;;;;;;;;;;5014997;28;20049;-63
2023/08/02 09:31:28;;;;;;;4.93;2.72;;;;;;;;;;5019315;28;20083;-64
2023/08/02 09:33:55;;;;;;;4.45;2.75;;;;;;;;;;5013505;28;20398;-64
2023/08/02 09:36:21;;;;;;;3.97;2.60;;;;;;;;;;5019914;28;20462;-63
2023/08/02 09:39:10;;;;;;;3.30;2.78;;;;;;;;;;5024181;28;20037;-63
2023/08/02 09:41:36;;;;;;;3.83;2.47;;;;;;;;;;5015778;28;20044;-63
2023/08/02 09:44:02;;;;;;;4.78;2.55;;;;;;;;;;5011105;28;20048;-63
2023/08/02 09:46:29;;;;;;;3.45;2.72;;;;;;;;;;5016708;28;20463;-63
2023/08/02 09:48:56;;;;;;;5.03;2.47;;;;;;;;;;5019510;28;20080;-63
2023/08/02 09:51:22;;;;;;;4.10;2.90;;;;;;;;;;5012789;28;20045;-63
2023/08/02 09:53:57;;;;;;;4.93;2.78;;;;;;;;;;5018489;28;20053;-63
2023/08/02 09:56:27;;;;;;;2.55;2.35;;;;;;;;;;5021218;28;20045;-63
2023/08/02 09:58:55;;;;;;;3.10;2.78;;;;;;;;;;5014334;28;20040;-63
2023/08/02 10:01:23;;;;;;;2.63;2.42;;;;;;;;;;5014543;28;20135;-63
2023/08/02 10:03:55;;;;;;;2.95;2.22;;;;;;;;;;5015187;28;20038;-63
2023/08/02 10:06:21;;;;;;;;;;;;;;;;;;5015993;28;20394;-63
2023/08/02 10:08:48;;;;;;;3.92;2.70;;;;;;;;;;5017588;28;20379;-63
2023/08/02 10:11:14;;;;;;;3.28;2.80;;;;;;;;;;5024710;28;20050;-63
2023/08/02 10:13:42;;;;;;;3.00;2.55;;;;;;;;;;5019715;28;20564;-63
2023/08/02 10:16:08;;;;;;;4.07;2.55;;;;;;;;;;5016046;28;20044;-63
2023/08/02 10:18:34;;;;;;;5.80;2.97;;;;;;;;;;5013092;28;20077;-63
2023/08/02 10:21:01;;;;;;;2.88;2.58;;;;;;;;;;5012950;28;20042;-63
2023/08/02 10:23:27;;;;;;;2.45;2.00;;;;;;;;;;5014263;28;20037;-63
2023/08/02 10:25:54;;;;;;;3.65;2.47;;;;;;;;;;5016733;28;20042;-63
2023/08/02 10:28:20;;;;;;;2.25;1.98;;;;;;;;;;5012904;28;20038;-63
2023/08/02 10:30:47;;;;;;;2.38;2.20;;;;;;;;;;5022825;28;20064;-63
2023/08/02 10:33:14;;;;;;;2.40;2.08;;;;;;;;;;5024049;28;20033;-63
2023/08/02 10:36:03;;;;;;;3.13;2.63;;;;;;;;;;5023483;28;20045;-63
2023/08/02 10:38:29;;;;;;;2.60;2.40;;;;;;;;;;5016723;28;20045;-63
2023/08/02 10:41:03;;;;;;;3.03;2.05;;;;;;;;;;5021156;28;20395;-62
2023/08/02 10:43:29;;;;;;;2.63;2.30;;;;;;;;;;5018084;28;20041;-63
2023/08/02 10:46:13;;;;;;;2.30;2.08;;;;;;;;;;5017490;28;20045;-63
2023/08/02 10:48:39;;;;;;;3.25;2.30;;;;;;;;;;5022381;28;20564;-63
2023/08/02 10:51:05;;;;;;;1.83;1.73;;;;;;;;;;5013072;28;20072;-63
2023/08/02 10:53:31;;;;;;;2.92;2.28;;;;;;;;;;5015977;28;20061;-63
2023/08/02 10:56:16;;;;;;;2.95;2.00;;;;;;;;;;5014035;28;20236;-63
2023/08/02 10:58:46;;;;;;;1.80;1.70;;;;;;;;;;5013764;28;20050;-63
2023/08/02 11:01:12;;;;;;;1.83;1.73;;;;;;;;;;5014522;28;20046;-63
2023/08/02 11:03:39;;;;;;;1.80;1.70;;;;;;;;;;5017560;28;20120;-63
2023/08/02 11:06:05;;;;;;;3.75;1.77;;;;;;;;;;5016405;28;20042;-63
2023/08/02 11:08:45;;;;;;;3.55;3.03;;;;;;;;;;5019855;28;20609;-63
2023/08/02 11:11:11;;;;;;;2.22;2.03;;;;;;;;;;5015754;28;20050;-63
2023/08/02 11:13:40;;;;;;;1.70;1.58;;;;;;;;;;5023279;28;20606;-63
2023/08/02 11:16:07;;;;;;;1.85;1.27;;;;;;;;;;5016303;28;20052;-62
2023/08/02 11:18:36;;;;;;;1.20;1.10;;;;;;;;;;5019759;28;20033;-62
2023/08/02 11:21:12;;;;;;;1.10;1.00;;;;;;;;;;5015362;28;20499;-63
2023/08/02 11:23:38;;;;;;;1.00;0.90;;;;;;;;;;5023051;28;20044;-63
2023/08/02 11:26:07;;;;;;;1.58;0.98;;;;;;;;;;5018479;28;20397;-63
2023/08/02 11:28:43;;;;;;;1.17;1.08;;;;;;;;;;5019635;28;20598;-63
2023/08/02 11:31:10;;;;;;;0.90;0.90;;;;;;;;;;5019715;28;20042;-63
2023/08/02 11:33:37;;;;;;;1.45;0.93;;;;;;;;;;5020516;28;20395;-63
2023/08/02 11:36:03;;;;;;;0.93;0.93;;;;;;;;;;5020451;28;20112;-63
2023/08/02 11:38:30;;;;;;;2.10;1.75;;;;;;;;;;5019717;28;20033;-63
2023/08/02 11:40:57;;;;;;;1.42;1.33;;;;;;;;;;5018156;28;20052;-63
2023/08/02 11:43:35;;;;;;;0.90;0.90;;;;;;;;;;5014888;28;20037;-63
2023/08/02 11:46:12;;;;;;;0.85;0.80;;;;;;;;;;5018014;28;20166;-63
2023/08/02 11:48:38;;;;;;;1.67;1.00;;;;;;;;;;5018413;28;20037;-64
2023/08/02 11:51:04;;;;;;;0.75;0.75;;;;;;;;;;5014790;28;20049;-63
2023/08/02 11:53:30;;;;;;;1.67;1.13;;;;;;;;;;5015108;28;20066;-63
2023/08/02 11:55:57;;;;;;;1.05;0.95;;;;;;;;;;5020639;28;20094;-63
2023/08/02 11:58:23;;;;;;;0.63;0.63;;;;;;;;;;5014884;28;20045;-63
2023/08/02 12:00:49;;;;;;;0.65;0.65;;;;;;;;;;5018499;28;20030;-64
2023/08/02 12:03:15;;;;;;;0.50;0.50;;;;;;;;;;5018968;28;20085;-63
2023/08/02 12:05:42;;;;;;;0.65;0.63;;;;;;;;;;5022602;28;20091;-64
2023/08/02 12:08:13;;;;;;;2.15;0.70;;;;;;;;;;5023204;28;20434;-63
2023/08/02 12:10:43;;;;;;;2.10;2.00;;;;;;;;;;5014440;28;20414;-63
2023/08/02 12:13:14;;;;;;;3.50;3.20;;;;;;;;;;5017208;28;20045;-63
2023/08/02 12:15:40;;;;;;;1.98;1.88;;;;;;;;;;5014110;28;20034;-63
2023/08/02 12:18:07;;;;;;;1.30;1.20;;;;;;;;;;5014650;28;20033;-63
2023/08/02 12:20:33;;;;;;;1.45;1.23;;;;;;;;;;5018050;28;20072;-64
2023/08/02 12:22:59;;;;;;;0.77;0.70;;;;;;;;;;5018457;28;20089;-63
2023/08/02 12:25:26;;;;;;;1.23;0.70;;;;;;;;;;5017093;28;20060;-64
2023/08/02 12:28:07;;;;;;;0.50;0.50;;;;;;;;;;5015615;28;20120;-63
2023/08/02 12:30:33;;;;;;;0.50;0.50;;;;;;;;;;5009763;28;20042;-63
2023/08/02 12:32:59;;;;;;;0.50;0.40;;;;;;;;;;5018165;28;20038;-63
2023/08/02 12:35:25;;;;;;;0.40;0.40;;;;;;;;;;5023143;28;20033;-63
2023/08/02 12:37:52;;;;;;;0.32;0.32;;;;;;;;;;5017987;28;20048;-63
2023/08/02 12:40:18;;;;;;;0.40;0.40;;;;;;;;;;5017982;28;20388;-63
2023/08/02 12:42:44;;;;;;;1.20;0.73;;;;;;;;;;5013829;28;20049;-63
2023/08/02 12:45:10;;;;;;;0.52;0.40;;;;;;;;;;5020850;28;20160;-63
2023/08/02 12:47:36;;;;;;;0.40;0.40;;;;;;;;;;5015798;28;20046;-63
2023/08/02 12:50:02;;;;;;;0.85;0.52;;;;;;;;;;5013448;28;20053;-63
2023/08/02 12:52:28;;;;;;;0.90;0.90;;;;;;;;;;5020989;28;20095;-64
2023/08/02 12:54:56;;;;;;;1.73;1.63;;;;;;;;;;5016534;28;20201;-63
2023/08/02 12:57:22;;;;;;;1.10;1.10;;;;;;;;;;5016497;28;20096;-63
2023/08/02 12:59:48;;;;;;;0.95;0.93;;;;;;;;;;5016456;28;20128;-63
2023/08/02 13:02:14;;;;;;;0.90;0.90;;;;;;;;;;5013577;28;20041;-63
2023/08/02 13:04:40;;;;;;;0.63;0.63;;;;;;;;;;5013614;28;20613;-64
2023/08/02 13:07:06;;;;;;;1.90;1.10;;;;;;;;;;5019138;28;20046;-64
2023/08/02 13:09:33;;;;;;;0.75;0.75;;;;;;;;;;5017711;28;20076;-64
2023/08/02 13:11:59;;;;;;;0.60;0.60;;;;;;;;;;5020983;28;20442;-64
2023/08/02 13:14:26;;;;;;;1.38;1.27;;;;;;;;;;5018645;28;20040;-64
2023/08/02 13:16:53;;;;;;;1.20;1.10;;;;;;;;;;5017874;28;20555;-64
2023/08/02 13:19:19;;;;;;;1.10;1.10;;;;;;;;;;5015513;28;20458;-64
2023/08/02 13:21:45;;;;;;;0.70;0.70;;;;;;;;;;5012325;28;20041;-64
2023/08/02 13:24:11;;;;;;;1.08;1.00;;;;;;;;;;5011740;28;20491;-64
2023/08/02 13:26:37;;;;;;;1.05;0.98;;;;;;;;;;5013119;28;20092;-64
2023/08/02 13:29:03;;;;;;;0.93;0.82;;;;;;;;;;5010169;28;20034;-64
2023/08/02 13:31:30;;;;;;;0.80;0.80;;;;;;;;;;5015269;28;20060;-63
2023/08/02 13:33:56;;;;;;;0.88;0.88;;;;;;;;;;5012913;28;20084;-63
2023/08/02 13:36:22;;;;;;;1.15;1.05;;;;;;;;;;5013652;28;20511;-63
2023/08/02 13:38:48;;;;;;;1.25;1.08;;;;;;;;;;5010068;28;20458;-63
2023/08/02 13:41:14;;;;;;;1.33;1.23;;;;;;;;;;5010426;28;20095;-64
2023/08/02 13:43:40;;;;;;;1.42;1.33;;;;;;;;;;5019615;28;20049;-64
2023/08/02 13:46:06;;;;;;;1.30;1.08;;;;;;;;;;5018029;28;20045;-64
2023/08/02 13:48:32;;;;;;;3.05;0.90;;;;;;;;;;5017327;28;20376;-64
2023/08/02 13:50:58;;;;;;;1.02;0.90;;;;;;;;;;5015366;28;20064;-64
2023/08/02 13:53:24;;;;;;;0.70;0.60;;;;;;;;;;5018560;28;20431;-64
2023/08/02 13:55:50;;;;;;;1.95;0.90;;;;;;;;;;5021601;28;20045;-64
2023/08/02 13:58:16;;;;;;;1.27;0.70;;;;;;;;;;5021584;28;20518;-64
2023/08/02 14:00:42;;;;;;;1.38;0.60;;;;;;;;;;5014964;28;20419;-64
2023/08/02 14:03:09;;;;;;;0.80;0.80;;;;;;;;;;5016814;28;20526;-64
2023/08/02 14:05:35;;;;;;;0.93;0.75;;;;;;;;;;5014408;28;20037;-64
2023/08/02 14:08:01;;;;;;;0.90;0.90;;;;;;;;;;5013796;28;20044;-64
2023/08/02 14:10:27;;;;;;;0.88;0.60;;;;;;;;;;5018535;28;20125;-63
2023/08/02 14:12:53;;;;;;;2.13;0.80;;;;;;;;;;5014895;28;20121;-63
2023/08/02 14:15:19;;;;;;;3.33;1.30;;;;;;;;;;5014219;28;20577;-63
2023/08/02 14:17:45;;;;;;;1.92;0.82;;;;;;;;;;5015729;28;20044;-63
2023/08/02 14:20:11;;;;;;;2.40;0.90;;;;;;;;;;5014201;28;20074;-63
2023/08/02 14:22:37;;;;;;;1.52;0.85;;;;;;;;;;5013698;28;20050;-63
2023/08/02 14:25:03;;;;;;;1.75;0.75;;;;;;;;;;5009353;28;20050;-63
2023/08/02 14:27:29;;;;;;;2.97;0.75;;;;;;;;;;5013389;28;20468;-63
2023/08/02 14:29:55;;;;;;;1.67;0.50;;;;;;;;;;5011169;28;20041;-63
2023/08/02 14:32:21;;;;;;;1.05;0.40;;;;;;;;;;5012058;28;20071;-63
2023/08/02 14:34:47;;;;;;;1.63;0.60;;;;;;;;;;5015344;28;20090;-63
2023/08/02 14:37:14;;;;;;;1.92;0.68;;;;;;;;;;5017452;28;20678;-63
2023/08/02 14:39:40;;;;;;;1.10;0.70;;;;;;;;;;5013791;28;20104;-63
2023/08/02 14:42:06;;;;;;;3.13;0.88;;;;;;;;;;5008580;28;20516;-64